Time;durP1;ratioP1;P1;durP2;ratioP2;P2;SDS_P1;SDS_P2;PMS_P1;PMS_P2;Temp;Humidity;BMP_temperature;BMP_pressure;BME280_temperature;BME280_humidity;BME280_pressure;Samples;Min_cycle;Max_cycle;Signal;HPM_P1;HPM_P2
2022/11/01 00:02:01;;;;;;;16.15;8.82;;;14.20;99.90;;;;;;5078907;28;20024;-75
2022/11/01 00:04:28;;;;;;;14.70;8.35;;;14.20;99.90;;;;;;5081440;28;20044;-76
2022/11/01 00:06:54;;;;;;;15.02;9.18;;;14.20;99.90;;;;;;5087127;28;20074;-75
2022/11/01 00:09:19;;;;;;;14.80;9.55;;;14.20;99.90;;;;;;5085249;28;20369;-76
2022/11/01 00:11:45;;;;;;;13.88;8.75;;;14.20;99.90;;;;;;5079308;28;20054;-75
2022/11/01 00:14:12;;;;;;;17.50;9.73;;;14.30;99.90;;;;;;5080889;28;20499;-75
2022/11/01 00:16:40;;;;;;;13.60;8.73;;;14.30;99.90;;;;;;5085417;28;20044;-76
2022/11/01 00:19:05;;;;;;;16.88;8.80;;;14.30;99.90;;;;;;5083493;28;20380;-76
2022/11/01 00:21:31;;;;;;;13.45;8.40;;;14.30;99.90;;;;;;5079416;28;20035;-76
2022/11/01 00:23:57;;;;;;;20.05;9.00;;;14.30;99.90;;;;;;5064855;28;20376;-76
2022/11/01 00:26:23;;;;;;;25.85;9.93;;;14.30;99.90;;;;;;5079144;28;20055;-74
2022/11/01 00:28:50;;;;;;;21.42;9.65;;;14.40;99.90;;;;;;5079085;28;20036;-75
2022/11/01 00:31:17;;;;;;;16.55;8.27;;;14.30;99.90;;;;;;5078732;28;20033;-74
2022/11/01 00:33:43;;;;;;;18.27;9.15;;;14.40;99.90;;;;;;5078599;28;20025;-74
2022/11/01 00:36:08;;;;;;;14.13;8.55;;;14.40;99.90;;;;;;5078937;28;20041;-76
2022/11/01 00:38:35;;;;;;;15.95;8.20;;;14.50;99.90;;;;;;5077986;28;20020;-74
2022/11/01 00:41:04;;;;;;;16.33;8.95;;;14.40;99.90;;;;;;5077580;28;20066;-76
2022/11/01 00:43:34;;;;;;;14.13;7.82;;;14.50;99.90;;;;;;5074902;28;20029;-75
2022/11/01 00:46:00;;;;;;;14.02;8.10;;;14.50;99.90;;;;;;5075623;28;20013;-76
2022/11/01 00:48:27;;;;;;;14.18;7.68;;;14.50;99.90;;;;;;5075254;28;20041;-74
2022/11/01 00:50:53;;;;;;;15.63;8.38;;;14.60;99.90;;;;;;5075866;28;20032;-76
2022/11/01 00:53:19;;;;;;;17.60;8.57;;;14.60;99.90;;;;;;5075533;28;20399;-76
2022/11/01 00:55:44;;;;;;;12.57;7.82;;;14.60;99.90;;;;;;5075693;28;20056;-76
2022/11/01 00:58:15;;;;;;;18.17;8.35;;;14.60;99.90;;;;;;5076384;28;20063;-76
2022/11/01 01:00:46;;;;;;;12.77;8.63;;;14.50;99.90;;;;;;5076240;28;20039;-77
2022/11/01 01:03:12;;;;;;;14.45;8.32;;;14.50;99.90;;;;;;5076652;28;20035;-77
2022/11/01 01:05:37;;;;;;;12.45;7.68;;;14.50;99.90;;;;;;5075285;28;20472;-77
2022/11/01 01:08:03;;;;;;;20.60;8.15;;;14.50;99.90;;;;;;5075145;28;20426;-76
2022/11/01 01:10:30;;;;;;;18.13;8.18;;;14.50;99.90;;;;;;5075570;28;20032;-77
2022/11/01 01:12:55;;;;;;;14.60;7.70;;;14.50;99.90;;;;;;5077079;28;20021;-76
2022/11/01 01:15:21;;;;;;;20.50;8.95;;;14.60;99.90;;;;;;5076690;28;20078;-76
2022/11/01 01:17:47;;;;;;;10.30;7.22;;;14.60;99.90;;;;;;5079569;28;20021;-77
2022/11/01 01:20:13;;;;;;;11.38;7.25;;;14.60;99.90;;;;;;5080094;28;20024;-77
2022/11/01 01:22:40;;;;;;;15.35;7.72;;;14.60;99.90;;;;;;5070485;28;20380;-75
2022/11/01 01:25:05;;;;;;;11.48;7.47;;;14.50;99.90;;;;;;5079064;28;20053;-76
2022/11/01 01:27:31;;;;;;;22.88;8.93;;;14.50;99.90;;;;;;5082285;28;20024;-76
2022/11/01 01:29:57;;;;;;;16.98;7.63;;;14.50;99.90;;;;;;5075717;28;20051;-77
2022/11/01 01:32:23;;;;;;;8.25;6.63;;;14.60;99.90;;;;;;5075436;28;20038;-75
2022/11/01 01:34:49;;;;;;;13.63;6.80;;;14.60;99.90;;;;;;5077892;28;20052;-76
2022/11/01 01:37:15;;;;;;;11.98;8.57;;;14.60;99.90;;;;;;5077479;28;20028;-76
2022/11/01 01:39:41;;;;;;;11.85;7.38;;;14.50;99.90;;;;;;5075909;28;20376;-76
2022/11/01 01:42:30;;;;;;;12.20;7.50;;;14.50;99.90;;;;;;5073718;28;20028;-76
2022/11/01 01:44:55;;;;;;;13.75;7.70;;;14.60;99.90;;;;;;5054014;28;20033;-76
2022/11/01 01:47:35;;;;;;;8.23;6.68;;;14.60;99.90;;;;;;5058333;28;20083;-76
2022/11/01 01:50:06;;;;;;;13.73;8.00;;;14.60;99.90;;;;;;5066369;28;20028;-76
2022/11/01 01:52:41;;;;;;;11.20;7.35;;;14.70;99.90;;;;;;5063815;28;20104;-77
2022/11/01 01:55:08;;;;;;;12.25;6.32;;;14.80;99.90;;;;;;5075435;28;20048;-75
2022/11/01 01:57:37;;;;;;;8.80;6.60;;;14.80;99.90;;;;;;5097261;28;20020;-76
2022/11/01 02:00:04;;;;;;;8.20;6.25;;;14.90;99.90;;;;;;5077798;28;20025;-77
2022/11/01 02:02:30;;;;;;;11.07;6.80;;;14.90;99.90;;;;;;5073694;28;20029;-77
2022/11/01 02:05:17;;;;;;;15.55;6.47;;;15.00;99.90;;;;;;5074128;28;20021;-77
2022/11/01 02:07:45;;;;;;;14.15;6.97;;;15.00;99.90;;;;;;5074054;28;20035;-74
2022/11/01 02:10:13;;;;;;;10.45;6.70;;;15.00;99.90;;;;;;5073735;28;20578;-75
2022/11/01 02:12:45;;;;;;;11.05;7.05;;;15.10;99.90;;;;;;5073746;28;20501;-77
2022/11/01 02:15:12;;;;;;;12.25;7.05;;;15.00;99.90;;;;;;5072934;28;20021;-76
2022/11/01 02:18:06;;;;;;;9.55;6.32;;;15.10;99.90;;;;;;5053505;28;20029;-76
2022/11/01 02:20:59;;;;;;;11.88;6.47;;;15.20;99.90;;;;;;5065900;28;20036;-76
2022/11/01 02:23:58;;;;;;;12.57;6.43;;;15.20;99.90;;;;;;5072929;28;20062;-77
2022/11/01 02:27:01;;;;;;;15.02;7.10;;;15.30;99.90;;;;;;5062166;28;20044;-77
2022/11/01 02:29:45;;;;;;;11.73;5.90;;;15.30;99.90;;;;;;5073413;28;20025;-77
2022/11/01 02:32:26;;;;;;;10.05;5.88;;;15.40;99.90;;;;;;5072989;28;20114;-75
2022/11/01 02:35:02;;;;;;;7.28;5.53;;;15.40;99.90;;;;;;5073569;28;20032;-76
2022/11/01 02:37:39;;;;;;;8.40;5.93;;;15.50;99.90;;;;;;5072289;28;20024;-76
2022/11/01 02:40:19;;;;;;;13.32;5.97;;;15.60;99.90;;;;;;5073566;28;20025;-76
2022/11/01 02:42:48;;;;;;;11.10;5.15;;;15.60;99.90;;;;;;5072844;28;20495;-78
2022/11/01 02:45:43;;;;;;;10.20;6.00;;;15.70;99.90;;;;;;5072894;28;20047;-77
2022/11/01 02:48:09;;;;;;;12.25;5.75;;;15.70;99.90;;;;;;5071112;28;20048;-77
2022/11/01 02:50:44;;;;;;;9.07;5.47;;;15.60;99.90;;;;;;5074537;28;20028;-76
2022/11/01 02:53:10;;;;;;;9.43;5.30;;;15.60;99.90;;;;;;5058479;28;20027;-76
2022/11/01 02:55:35;;;;;;;8.05;4.50;;;15.70;99.90;;;;;;5073150;28;20028;-78
2022/11/01 02:58:13;;;;;;;5.53;4.68;;;15.80;99.90;;;;;;5072521;28;20511;-76
2022/11/01 03:00:41;;;;;;;6.38;4.65;;;15.70;99.90;;;;;;5073183;28;20070;-74
2022/11/01 03:03:12;;;;;;;9.20;4.05;;;15.80;99.90;;;;;;5073802;28;20043;-76
2022/11/01 03:05:56;;;;;;;4.95;4.50;;;15.90;99.90;;;;;;5072797;28;20492;-76
2022/11/01 03:08:27;;;;;;;4.65;3.90;;;15.90;99.90;;;;;;5074081;28;20070;-77
2022/11/01 03:11:02;;;;;;;8.82;3.58;;;16.00;99.90;;;;;;5073909;28;20021;-76
2022/11/01 03:14:05;;;;;;;7.55;2.80;;;15.90;99.90;;;;;;5072831;28;20021;-77
2022/11/01 03:16:59;;;;;;;2.13;1.20;;;16.00;99.90;;;;;;5072377;28;20402;-76
2022/11/01 03:19:50;;;;;;;4.75;1.48;;;15.90;99.90;;;;;;5047269;28;20039;-75
2022/11/01 03:22:45;;;;;;;5.72;1.05;;;15.80;99.90;;;;;;5064703;28;20020;-77
2022/11/01 03:28:12;;;;;;;1.50;0.90;;;15.60;99.90;;;;;;5079311;28;20063;-76
2022/11/01 03:30:43;;;;;;;5.22;1.00;;;15.60;99.90;;;;;;5072584;28;20029;-78
2022/11/01 03:33:11;;;;;;;3.08;1.30;;;15.50;99.90;;;;;;5072987;28;20039;-76
2022/11/01 03:35:40;;;;;;;1.75;1.30;;;15.40;99.90;;;;;;5075345;28;20401;-77
2022/11/01 03:38:10;;;;;;;2.85;1.40;;;15.40;99.90;;;;;;5073178;28;20023;-77
2022/11/01 03:40:40;;;;;;;3.03;1.20;;;15.30;99.90;;;;;;5072565;28;20032;-77
2022/11/01 03:43:10;;;;;;;2.85;1.20;;;15.30;99.90;;;;;;5073591;28;20048;-77
2022/11/01 03:45:38;;;;;;;2.70;0.75;;;15.20;99.90;;;;;;5084498;28;20051;-77
2022/11/01 03:48:05;;;;;;;2.13;1.10;;;15.20;99.90;;;;;;5078396;28;20040;-76
2022/11/01 03:50:31;;;;;;;11.55;1.10;;;15.20;99.90;;;;;;5076634;28;20024;-76
2022/11/01 03:52:57;;;;;;;6.07;1.67;;;15.10;99.90;;;;;;5076388;28;20064;-76
2022/11/01 03:55:23;;;;;;;5.20;1.00;;;15.10;99.90;;;;;;5074828;28;20021;-78
2022/11/01 03:57:56;;;;;;;7.80;1.00;;;15.30;99.90;;;;;;5079362;28;20056;-78
2022/11/01 04:00:39;;;;;;;4.68;1.00;;;14.90;99.90;;;;;;5089265;28;20126;-78
2022/11/01 04:03:04;;;;;;;7.63;1.20;;;14.90;99.90;;;;;;5084955;28;20029;-78
2022/11/01 04:05:32;;;;;;;3.78;1.20;;;14.80;99.90;;;;;;5072932;28;20030;-77
2022/11/01 04:07:57;;;;;;;3.85;1.25;;;14.70;99.90;;;;;;5072225;28;20039;-78
2022/11/01 04:10:25;;;;;;;1.52;0.88;;;14.70;99.90;;;;;;5072354;28;20103;-77
2022/11/01 04:12:51;;;;;;;2.90;1.17;;;14.60;99.90;;;;;;5072485;28;20032;-77
2022/11/01 04:20:56;;;;;;;6.43;1.15;;;14.60;99.90;;;;;;5076059;28;20218;-77
2022/11/01 04:23:21;;;;;;;2.58;1.00;;;14.60;99.90;;;;;;5075380;28;20017;-74
2022/11/01 04:25:47;;;;;;;3.47;1.33;;;14.60;99.90;;;;;;5075397;28;20127;-75
2022/11/01 04:28:16;;;;;;;4.95;0.98;;;14.60;99.90;;;;;;5076064;28;20032;-76
2022/11/01 04:30:42;;;;;;;10.00;0.90;;;14.60;99.90;;;;;;5074706;28;20029;-77
2022/11/01 04:33:08;;;;;;;4.57;1.08;;;14.60;99.90;;;;;;5075426;28;20032;-77
2022/11/01 04:35:37;;;;;;;3.50;0.98;;;14.50;99.90;;;;;;5075319;28;20418;-76
2022/11/01 04:38:03;;;;;;;10.68;1.65;;;14.50;99.90;;;;;;5075067;28;20028;-77
2022/11/01 04:40:30;;;;;;;8.50;1.38;;;14.40;99.90;;;;;;5075423;28;20035;-77
2022/11/01 04:42:57;;;;;;;4.95;0.95;;;14.40;99.90;;;;;;5074906;28;20094;-76
2022/11/01 04:45:23;;;;;;;9.15;1.70;;;14.40;99.90;;;;;;5075179;28;20079;-75
2022/11/01 04:48:00;;;;;;;3.90;0.88;;;14.30;99.90;;;;;;5076595;28;20041;-77
2022/11/01 04:50:27;;;;;;;5.40;1.10;;;14.20;99.90;;;;;;5078101;28;20025;-76
2022/11/01 04:52:53;;;;;;;5.38;1.27;;;14.20;99.90;;;;;;5062073;28;20083;-78
2022/11/01 04:55:19;;;;;;;6.28;1.45;;;14.10;99.90;;;;;;5075923;28;20029;-77
2022/11/01 04:57:44;;;;;;;8.25;1.23;;;14.00;99.90;;;;;;5074824;28;20468;-75
2022/11/01 05:00:11;;;;;;;6.88;1.00;;;14.00;99.90;;;;;;5075386;28;20491;-77
2022/11/01 05:02:38;;;;;;;4.43;1.60;;;14.00;99.90;;;;;;5075385;28;20185;-78
2022/11/01 05:05:06;;;;;;;5.30;1.05;;;13.90;99.90;;;;;;5075133;28;20034;-77
2022/11/01 05:07:32;;;;;;;11.18;1.42;;;14.00;99.90;;;;;;5074922;28;20036;-76
2022/11/01 05:09:58;;;;;;;10.40;1.20;;;14.00;99.90;;;;;;5075535;28;20032;-76
2022/11/01 05:12:27;;;;;;;4.45;1.00;;;14.00;99.90;;;;;;5075119;28;20021;-78
2022/11/01 05:14:52;;;;;;;7.65;1.45;;;13.90;99.90;;;;;;5076216;28;20510;-77
2022/11/01 05:17:18;;;;;;;3.00;1.02;;;13.80;99.90;;;;;;5075221;28;20035;-76
2022/11/01 05:19:44;;;;;;;6.15;1.60;;;13.90;99.90;;;;;;5075092;28;20472;-76
2022/11/01 05:22:10;;;;;;;6.57;1.10;;;15.10;99.90;;;;;;5076516;28;20024;-77
2022/11/01 05:24:36;;;;;;;9.00;2.28;;;13.80;99.90;;;;;;5061570;28;20052;-77
2022/11/01 05:27:02;;;;;;;10.63;1.60;;;13.70;99.90;;;;;;5077401;28;20031;-78
2022/11/01 05:29:28;;;;;;;11.00;1.88;;;13.70;99.90;;;;;;5078111;28;20032;-77
2022/11/01 05:31:53;;;;;;;10.40;2.40;;;13.70;99.90;;;;;;5079197;28;20032;-77
2022/11/01 05:34:19;;;;;;;14.63;1.73;;;13.70;99.90;;;;;;5085603;28;20054;-77
2022/11/01 05:36:45;;;;;;;12.43;2.03;;;13.70;99.90;;;;;;5084733;28;20091;-78
2022/11/01 05:39:11;;;;;;;7.70;1.77;;;13.70;99.90;;;;;;5074763;28;20483;-77
2022/11/01 05:41:39;;;;;;;7.18;1.98;;;13.70;99.90;;;;;;5074020;28;20028;-77
2022/11/01 05:44:05;;;;;;;17.95;2.25;;;13.70;99.90;;;;;;5075301;28;20020;-76
2022/11/01 05:46:31;;;;;;;11.48;2.15;;;13.60;99.90;;;;;;5076992;28;20431;-78
2022/11/01 05:48:56;;;;;;;12.98;1.70;;;13.60;99.90;;;;;;5077366;28;20722;-77
2022/11/01 05:51:22;;;;;;;2.67;1.13;;;13.60;99.90;;;;;;5073697;28;20017;-76
2022/11/01 05:53:48;;;;;;;6.25;1.63;;;13.60;99.90;;;;;;5067693;28;20025;-77
2022/11/01 05:56:14;;;;;;;10.70;1.75;;;13.60;99.90;;;;;;5076120;28;20017;-78
2022/11/01 05:58:40;;;;;;;11.60;2.38;;;13.70;99.90;;;;;;5074689;28;20024;-79
2022/11/01 06:01:06;;;;;;;4.88;1.67;;;13.70;99.90;;;;;;5073740;28;20028;-78
2022/11/01 06:03:32;;;;;;;7.20;2.08;;;13.60;99.90;;;;;;5073706;28;20025;-77
2022/11/01 06:05:59;;;;;;;8.73;1.92;;;13.60;99.90;;;;;;5077839;28;20380;-77
2022/11/01 06:08:29;;;;;;;9.25;2.17;;;13.70;99.90;;;;;;5084614;28;20029;-77
2022/11/01 06:11:05;;;;;;;16.27;1.80;;;13.70;99.90;;;;;;5077002;28;20063;-78
2022/11/01 06:13:32;;;;;;;6.45;2.03;;;13.60;99.90;;;;;;5074249;28;20032;-78
2022/11/01 06:16:00;;;;;;;11.30;2.17;;;13.50;99.90;;;;;;5064889;28;20025;-78
2022/11/01 06:18:26;;;;;;;13.38;2.30;;;13.50;99.90;;;;;;5070374;28;20021;-77
2022/11/01 06:20:52;;;;;;;13.60;2.17;;;13.50;99.90;;;;;;5070771;28;20045;-76
2022/11/01 06:23:18;;;;;;;13.60;1.85;;;13.40;99.90;;;;;;5077907;28;20030;-78
2022/11/01 06:25:44;;;;;;;14.27;3.13;;;13.50;99.90;;;;;;5080620;28;20049;-78
2022/11/01 06:28:10;;;;;;;12.48;2.60;;;13.40;99.90;;;;;;5070982;28;20576;-77
2022/11/01 06:30:37;;;;;;;7.25;1.98;;;13.40;99.90;;;;;;5077177;28;20027;-78
2022/11/01 06:33:05;;;;;;;17.40;2.38;;;13.40;99.90;;;;;;5074169;28;20025;-76
2022/11/01 06:35:32;;;;;;;16.60;2.55;;;13.30;99.90;;;;;;5069840;28;20031;-76
2022/11/01 06:38:05;;;;;;;10.40;2.05;;;13.20;99.90;;;;;;5073215;28;20036;-78
2022/11/01 06:40:35;;;;;;;12.10;2.47;;;13.30;99.90;;;;;;5084367;28;20016;-77
2022/11/01 06:43:03;;;;;;;13.57;3.08;;;13.40;99.90;;;;;;5062156;28;20060;-77
2022/11/01 06:45:30;;;;;;;9.30;2.33;;;13.30;99.90;;;;;;5060266;28;20054;-77
2022/11/01 06:47:58;;;;;;;12.23;2.83;;;13.30;99.90;;;;;;5072522;28;20037;-77
2022/11/01 06:50:24;;;;;;;15.07;2.58;;;13.30;99.90;;;;;;5057989;28;20504;-78
2022/11/01 06:52:50;;;;;;;12.80;2.20;;;13.30;99.90;;;;;;5068602;28;20020;-76
2022/11/01 06:55:16;;;;;;;15.55;2.58;;;13.20;99.90;;;;;;5073345;28;20417;-78
2022/11/01 06:57:42;;;;;;;16.70;3.00;;;13.20;99.90;;;;;;5091346;28;20047;-78
2022/11/01 07:00:08;;;;;;;16.27;2.30;;;13.20;99.90;;;;;;5085054;28;20538;-76
2022/11/01 07:02:35;;;;;;;14.60;2.78;;;13.20;99.90;;;;;;5077994;28;20116;-78
2022/11/01 07:05:00;;;;;;;20.98;3.08;;;13.20;99.90;;;;;;5070683;28;20050;-77
2022/11/01 07:07:27;;;;;;;14.15;2.28;;;13.20;99.90;;;;;;5065439;28;20115;-77
2022/11/01 07:09:53;;;;;;;14.10;2.88;;;13.20;99.90;;;;;;5084641;28;20511;-77
2022/11/01 07:12:18;;;;;;;24.02;3.03;;;13.30;99.90;;;;;;5071301;28;20032;-76
2022/11/01 07:14:44;;;;;;;16.60;2.45;;;13.30;99.90;;;;;;5089355;28;20103;-77
2022/11/01 07:17:10;;;;;;;14.48;2.58;;;13.30;99.90;;;;;;5083643;28;20013;-76
2022/11/01 07:19:35;;;;;;;13.48;2.63;;;13.30;99.90;;;;;;5080483;28;20016;-76
2022/11/01 07:22:01;;;;;;;16.77;2.95;;;13.30;99.90;;;;;;5085716;28;20036;-78
2022/11/01 07:24:26;;;;;;;7.40;1.52;;;13.30;99.90;;;;;;5082744;28;20024;-78
2022/11/01 07:26:53;;;;;;;7.53;2.03;;;13.30;99.90;;;;;;5082179;28;20079;-77
2022/11/01 07:29:19;;;;;;;16.63;2.42;;;13.30;99.90;;;;;;5087431;28;20055;-77
2022/11/01 07:31:46;;;;;;;11.38;2.33;;;13.30;99.90;;;;;;5082712;28;20016;-76
2022/11/01 07:34:11;;;;;;;11.68;2.63;;;13.30;99.90;;;;;;5077351;28;20119;-77
2022/11/01 07:36:37;;;;;;;9.95;2.45;;;13.30;99.90;;;;;;5081563;28;20471;-77
2022/11/01 07:39:03;;;;;;;13.77;2.50;;;13.30;99.90;;;;;;5079929;28;20029;-75
2022/11/01 07:41:28;;;;;;;14.82;2.63;;;13.30;99.90;;;;;;5079057;28;20024;-77
2022/11/01 07:43:56;;;;;;;18.88;2.97;;;13.40;99.90;;;;;;5081987;28;20092;-77
2022/11/01 07:46:22;;;;;;;14.38;3.10;;;13.40;99.90;;;;;;5072804;28;20035;-76
2022/11/01 07:48:49;;;;;;;11.38;3.13;;;13.30;99.90;;;;;;5082555;28;20032;-77
2022/11/01 07:51:15;;;;;;;12.82;2.40;;;13.30;99.90;;;;;;5077107;28;20029;-75
2022/11/01 07:53:41;;;;;;;10.05;2.20;;;13.40;99.90;;;;;;5065400;28;20108;-77
2022/11/01 07:56:07;;;;;;;12.68;2.47;;;13.40;99.90;;;;;;5077029;28;20074;-76
2022/11/01 07:58:32;;;;;;;15.98;3.00;;;13.40;99.90;;;;;;5077124;28;20498;-77
2022/11/01 08:00:59;;;;;;;17.40;2.95;;;13.40;99.90;;;;;;5076635;28;20511;-75
2022/11/01 08:03:26;;;;;;;15.13;2.80;;;13.40;99.90;;;;;;5077598;28;20051;-77
2022/11/01 08:05:54;;;;;;;12.27;2.55;;;13.40;99.90;;;;;;5060254;28;20032;-76
2022/11/01 08:08:20;;;;;;;14.48;2.50;;;13.40;99.90;;;;;;5077962;28;20079;-77
2022/11/01 08:10:45;;;;;;;15.02;2.75;;;13.50;99.90;;;;;;5078247;28;20473;-75
2022/11/01 08:13:22;;;;;;;8.32;2.10;;;13.50;99.90;;;;;;5078347;28;20779;-77
2022/11/01 08:15:48;;;;;;;18.30;2.65;;;13.50;99.90;;;;;;5077356;28;20021;-77
2022/11/01 08:18:17;;;;;;;15.27;2.47;;;13.60;99.90;;;;;;5079785;28;20050;-79
2022/11/01 08:20:44;;;;;;;13.98;2.50;;;13.60;99.90;;;;;;5079488;28;20370;-77
2022/11/01 08:23:10;;;;;;;15.02;2.47;;;13.60;99.90;;;;;;5080161;28;20028;-77
2022/11/01 08:25:36;;;;;;;19.17;2.33;;;13.60;99.90;;;;;;5077570;28;20122;-77
2022/11/01 08:28:11;;;;;;;10.25;2.80;;;13.60;99.90;;;;;;5079131;28;20032;-79
2022/11/01 08:30:38;;;;;;;15.90;3.10;;;13.60;99.90;;;;;;5081746;28;20012;-77
2022/11/01 08:33:04;;;;;;;20.50;2.88;;;13.60;99.90;;;;;;5083495;28;20082;-79
2022/11/01 08:35:31;;;;;;;11.60;2.97;;;13.60;99.90;;;;;;5083667;28;20048;-77
2022/11/01 08:37:58;;;;;;;15.07;2.47;;;13.60;99.90;;;;;;5078194;28;20056;-77
2022/11/01 08:40:27;;;;;;;10.73;2.58;;;14.70;99.90;;;;;;5076440;28;20037;-74
2022/11/01 08:42:53;;;;;;;12.43;2.35;;;13.60;99.90;;;;;;5071374;28;20028;-77
2022/11/01 08:45:18;;;;;;;10.60;2.55;;;13.90;99.90;;;;;;5063000;28;20016;-77
2022/11/01 08:47:44;;;;;;;12.73;2.47;;;13.70;99.90;;;;;;5078179;28;20036;-77
2022/11/01 08:50:12;;;;;;;15.63;2.42;;;13.70;99.90;;;;;;5060028;28;21961;-76
2022/11/01 08:52:39;;;;;;;16.83;2.72;;;13.70;99.90;;;;;;5076159;28;20031;-77
2022/11/01 08:55:05;;;;;;;13.48;2.65;;;13.60;99.90;;;;;;5076461;28;20013;-75
2022/11/01 08:57:31;;;;;;;12.25;2.65;;;13.60;99.90;;;;;;5073725;28;20035;-76
2022/11/01 08:59:57;;;;;;;13.73;2.72;;;14.70;99.90;;;;;;5080691;28;20017;-77
2022/11/01 09:02:22;;;;;;;15.07;2.70;;;13.70;99.90;;;;;;5084437;28;20087;-76
2022/11/01 09:04:48;;;;;;;14.18;3.10;;;13.70;99.90;;;;;;5081345;28;20020;-76
2022/11/01 09:07:13;;;;;;;14.32;2.25;;;13.80;99.90;;;;;;5096851;28;20524;-76
2022/11/01 09:09:39;;;;;;;14.93;2.47;;;13.90;99.90;;;;;;5095456;28;20136;-78
2022/11/01 09:12:05;;;;;;;10.02;2.75;;;14.00;99.90;;;;;;5089247;28;20017;-77
2022/11/01 09:14:31;;;;;;;17.48;2.33;;;14.00;99.90;;;;;;5079448;28;20017;-75
2022/11/01 09:16:57;;;;;;;12.50;2.38;;;14.10;99.90;;;;;;5081564;28;20028;-79
2022/11/01 09:19:23;;;;;;;16.63;2.65;;;14.20;99.90;;;;;;5076410;28;20071;-76
2022/11/01 09:21:49;;;;;;;14.90;2.10;;;14.20;99.90;;;;;;5076703;28;20028;-77
2022/11/01 09:24:16;;;;;;;15.57;2.47;;;14.20;99.90;;;;;;5058862;28;20039;-77
2022/11/01 09:26:42;;;;;;;13.82;2.35;;;14.20;99.90;;;;;;5074585;28;20037;-76
2022/11/01 09:29:09;;;;;;;18.10;2.55;;;14.30;99.90;;;;;;5073200;28;20033;-76
2022/11/01 09:31:35;;;;;;;15.02;2.80;;;14.30;99.90;;;;;;5073554;28;20103;-77
2022/11/01 09:34:01;;;;;;;15.40;3.25;;;14.30;99.90;;;;;;5073379;28;20044;-76
2022/11/01 09:36:28;;;;;;;16.95;3.33;;;14.30;99.90;;;;;;5082791;28;20026;-74
2022/11/01 09:38:55;;;;;;;14.45;2.90;;;14.40;99.90;;;;;;5088866;28;20111;-77
2022/11/01 09:41:37;;;;;;;12.57;2.67;;;14.40;99.90;;;;;;5081342;28;20020;-76
2022/11/01 09:44:05;;;;;;;15.63;2.67;;;14.40;99.90;;;;;;5073830;28;20510;-77
2022/11/01 09:46:41;;;;;;;15.10;2.78;;;14.40;99.90;;;;;;5072689;28;20526;-74
2022/11/01 09:49:07;;;;;;;14.38;2.20;;;14.50;99.90;;;;;;5071458;28;20028;-77
2022/11/01 09:51:33;;;;;;;13.50;2.80;;;14.40;99.90;;;;;;5070952;28;20017;-77
2022/11/01 09:54:03;;;;;;;10.55;2.60;;;14.40;99.90;;;;;;5074298;28;20037;-76
2022/11/01 09:56:41;;;;;;;11.63;2.50;;;14.50;99.90;;;;;;5069456;28;20549;-77
2022/11/01 09:59:24;;;;;;;19.88;2.80;;;14.50;99.90;;;;;;5073878;28;20025;-77
2022/11/01 10:02:32;;;;;;;16.40;2.35;;;14.50;99.90;;;;;;5072691;28;20074;-78
2022/11/01 10:05:25;;;;;;;7.55;1.77;;;14.50;99.90;;;;;;5073363;28;20384;-76
2022/11/01 10:07:51;;;;;;;17.98;2.65;;;14.60;99.90;;;;;;5071015;28;20036;-76
2022/11/01 10:10:25;;;;;;;16.05;2.78;;;14.60;99.90;;;;;;5072882;28;20369;-77
2022/11/01 10:13:36;;;;;;;12.40;2.08;;;14.60;99.90;;;;;;5073249;28;20024;-77
2022/11/01 10:16:13;;;;;;;18.40;3.63;;;14.70;99.90;;;;;;5063765;28;20087;-75
2022/11/01 10:18:48;;;;;;;20.13;2.92;;;14.70;99.90;;;;;;5072810;28;20056;-77
2022/11/01 10:21:16;;;;;;;13.02;2.47;;;14.70;99.90;;;;;;5071940;28;20070;-77
2022/11/01 10:23:50;;;;;;;9.88;2.13;;;14.70;99.90;;;;;;5071936;28;20073;-77
2022/11/01 10:26:27;;;;;;;17.10;2.38;;;14.70;99.90;;;;;;5069885;28;20056;-77
2022/11/01 10:29:18;;;;;;;16.10;2.97;;;14.90;99.90;;;;;;5071703;28;20033;-77
2022/11/01 10:31:50;;;;;;;8.35;2.28;;;14.90;99.90;;;;;;5067315;28;20060;-79
2022/11/01 10:34:27;;;;;;;10.32;2.28;;;14.90;99.90;;;;;;5073298;28;20082;-76
2022/11/01 10:37:02;;;;;;;16.10;2.28;;;15.00;99.90;;;;;;5071787;28;20028;-78
2022/11/01 10:40:00;;;;;;;12.10;2.65;;;15.10;99.90;;;;;;5071402;28;20384;-77
2022/11/01 10:42:27;;;;;;;7.20;2.30;;;15.10;99.90;;;;;;5070388;28;20021;-77
2022/11/01 10:44:58;;;;;;;13.90;2.55;;;15.10;99.90;;;;;;5073916;28;20116;-77
2022/11/01 10:47:26;;;;;;;;;;;15.20;99.90;;;;;;5072363;28;20036;-76
2022/11/01 10:50:00;;;;;;;8.88;3.42;;;15.20;99.90;;;;;;5072571;28;20467;-76
2022/11/01 10:52:32;;;;;;;8.50;2.50;;;15.20;99.90;;;;;;5070645;28;20040;-76
2022/11/01 10:54:59;;;;;;;9.70;2.13;;;15.20;99.90;;;;;;5056401;28;20021;-79
2022/11/01 10:57:39;;;;;;;15.90;2.22;;;15.30;99.90;;;;;;5071400;28;20042;-78
2022/11/01 11:00:14;;;;;;;11.15;2.13;;;15.30;99.90;;;;;;5073628;28;20503;-77
2022/11/01 11:02:44;;;;;;;9.27;2.58;;;15.30;99.90;;;;;;5076784;28;20033;-74
2022/11/01 11:05:14;;;;;;;16.85;3.35;;;15.40;99.90;;;;;;5085744;28;20024;-76
2022/11/01 11:07:40;;;;;;;11.77;2.00;;;15.40;99.90;;;;;;5073352;28;20076;-79
2022/11/01 11:10:21;;;;;;;10.48;2.53;;;15.40;99.90;;;;;;5074527;28;20036;-76
2022/11/01 11:12:51;;;;;;;11.10;2.05;;;15.50;99.90;;;;;;5071281;28;20517;-75
2022/11/01 11:15:24;;;;;;;12.40;1.88;;;15.40;99.90;;;;;;5072877;28;20021;-75
2022/11/01 11:17:56;;;;;;;12.05;2.80;;;15.40;99.90;;;;;;5069832;28;20020;-76
2022/11/01 11:20:26;;;;;;;8.10;1.70;;;15.50;99.90;;;;;;5069791;28;20039;-74
2022/11/01 11:22:52;;;;;;;12.27;2.08;;;15.50;99.90;;;;;;5072181;28;20043;-79
2022/11/01 11:25:32;;;;;;;10.85;2.80;;;15.50;99.90;;;;;;5072922;28;20053;-79
2022/11/01 11:27:59;;;;;;;5.38;1.60;;;15.60;99.90;;;;;;5072419;28;20032;-76
2022/11/01 11:30:27;;;;;;;7.78;2.00;;;15.60;99.90;;;;;;5072791;28;20036;-77
2022/11/01 11:32:54;;;;;;;6.30;2.00;;;15.60;99.90;;;;;;5080085;28;20032;-76
2022/11/01 11:35:22;;;;;;;6.97;1.75;;;15.60;99.90;;;;;;5071668;28;20368;-78
2022/11/01 11:38:06;;;;;;;9.55;1.83;;;15.60;99.90;;;;;;5057010;28;20361;-75
2022/11/01 11:40:42;;;;;;;10.38;1.85;;;15.70;99.90;;;;;;5074779;28;20016;-77
2022/11/01 11:43:41;;;;;;;7.95;1.55;;;15.70;99.90;;;;;;5074691;28;20028;-77
2022/11/01 11:46:19;;;;;;;4.95;1.48;;;15.80;99.90;;;;;;5076529;28;20021;-80
2022/11/01 11:49:06;;;;;;;10.65;1.75;;;15.90;99.90;;;;;;5060676;28;20057;-80
2022/11/01 11:51:36;;;;;;;7.88;1.17;;;15.90;99.90;;;;;;5071369;28;20025;-79
2022/11/01 11:54:17;;;;;;;9.13;2.22;;;16.00;99.90;;;;;;5082510;28;20052;-78
2022/11/01 11:56:44;;;;;;;;;;;16.00;99.90;;;;;;5074488;28;20078;-76
2022/11/01 11:59:29;;;;;;;5.00;1.27;;;16.00;99.90;;;;;;5073610;28;20284;-76
2022/11/01 12:02:04;;;;;;;8.23;1.63;;;16.00;99.90;;;;;;5059391;28;20053;-74
2022/11/01 12:04:44;;;;;;;5.95;1.65;;;16.10;99.90;;;;;;5053334;28;20082;-76
2022/11/01 12:07:31;;;;;;;6.90;1.83;;;16.10;99.90;;;;;;5065271;28;20445;-75
2022/11/01 12:10:02;;;;;;;7.43;1.40;;;16.10;99.90;;;;;;5068920;28;20361;-77
2022/11/01 12:12:41;;;;;;;7.57;1.55;;;16.20;99.90;;;;;;5063080;28;20392;-76
2022/11/01 12:15:24;;;;;;;12.18;2.50;;;16.20;99.90;;;;;;5062530;28;20392;-75
2022/11/01 12:17:50;;;;;;;8.75;2.65;;;16.20;99.90;;;;;;5063109;28;20028;-77
2022/11/01 12:20:34;;;;;;;6.30;1.58;;;16.20;99.90;;;;;;5080471;28;20029;-77
2022/11/01 12:23:05;;;;;;;6.97;1.35;;;16.30;99.90;;;;;;5074052;28;20033;-77
2022/11/01 12:25:33;;;;;;;6.75;1.80;;;16.30;99.90;;;;;;5073647;28;20558;-77
2022/11/01 12:28:15;;;;;;;6.43;1.67;;;16.40;99.90;;;;;;5072693;28;20621;-77
2022/11/01 12:30:44;;;;;;;8.13;1.52;;;16.40;99.90;;;;;;5073199;28;20028;-76
2022/11/01 12:33:19;;;;;;;4.40;1.33;;;16.40;99.90;;;;;;5073936;28;20036;-76
2022/11/01 12:35:46;;;;;;;11.57;2.33;;;16.50;99.90;;;;;;5072837;28;20052;-76
2022/11/01 12:38:28;;;;;;;5.72;1.45;;;16.50;99.90;;;;;;5074503;28;20024;-77
2022/11/01 12:40:56;;;;;;;7.00;2.30;;;16.60;99.90;;;;;;5077354;28;20114;-76
2022/11/01 12:43:49;;;;;;;12.48;1.67;;;16.60;99.90;;;;;;5076298;28;20035;-78
2022/11/01 12:46:40;;;;;;;6.90;2.03;;;16.60;99.90;;;;;;5051823;28;20054;-77
2022/11/01 12:49:11;;;;;;;;;;;16.70;99.90;;;;;;5076466;28;20064;-75
2022/11/01 12:51:46;;;;;;;10.98;1.88;;;16.70;99.90;;;;;;5076644;28;19909;-77
2022/11/01 12:54:27;;;;;;;6.40;1.77;;;16.70;99.90;;;;;;5090410;28;20021;-77
2022/11/01 12:56:57;;;;;;;6.35;1.45;;;16.80;99.90;;;;;;5063558;28;20035;-76
2022/11/01 12:59:31;;;;;;;6.18;1.63;;;16.80;99.90;;;;;;5075867;28;20372;-77
2022/11/01 13:02:29;;;;;;;9.55;1.63;;;16.90;99.90;;;;;;5063070;28;20025;-77
2022/11/01 13:05:21;;;;;;;8.07;1.67;;;17.00;99.90;;;;;;5074992;28;20017;-77
2022/11/01 13:07:50;;;;;;;6.70;1.55;;;17.10;99.90;;;;;;5070036;28;20066;-76